sensor_id;sensor_type;location;lat;lon;timestamp;temperature;humidity
69598;SHT31;56802;51.184;-115.558;2022-07-17T00:01:55;26.49;22.09
69598;SHT31;56802;51.184;-115.558;2022-07-17T00:04:25;26.47;22.09
69598;SHT31;56802;51.184;-115.558;2022-07-17T00:06:55;26.46;22.14
69598;SHT31;56802;51.184;-115.558;2022-07-17T00:09:24;26.47;22.01
69598;SHT31;56802;51.184;-115.558;2022-07-17T00:11:53;26.47;22.14
69598;SHT31;56802;51.184;-115.558;2022-07-17T00:14:23;26.53;21.87
69598;SHT31;56802;51.184;-115.558;2022-07-17T00:16:52;26.62;21.68
69598;SHT31;56802;51.184;-115.558;2022-07-17T00:19:22;26.70;21.49
69598;SHT31;56802;51.184;-115.558;2022-07-17T00:21:52;26.77;21.59
69598;SHT31;56802;51.184;-115.558;2022-07-17T00:24:21;26.89;21.61
69598;SHT31;56802;51.184;-115.558;2022-07-17T00:26:50;26.98;21.66
69598;SHT31;56802;51.184;-115.558;2022-07-17T00:29:24;27.06;21.43
69598;SHT31;56802;51.184;-115.558;2022-07-17T00:31:53;27.05;21.42
69598;SHT31;56802;51.184;-115.558;2022-07-17T00:34:23;27.05;21.71
69598;SHT31;56802;51.184;-115.558;2022-07-17T00:36:52;27.08;21.47
69598;SHT31;56802;51.184;-115.558;2022-07-17T00:39:22;27.12;21.21
69598;SHT31;56802;51.184;-115.558;2022-07-17T00:41:51;27.17;21.20
69598;SHT31;56802;51.184;-115.558;2022-07-17T00:44:20;27.23;21.01
69598;SHT31;56802;51.184;-115.558;2022-07-17T00:46:53;27.24;20.78
69598;SHT31;56802;51.184;-115.558;2022-07-17T00:49:23;27.22;21.02
69598;SHT31;56802;51.184;-115.558;2022-07-17T00:51:52;27.22;20.84
69598;SHT31;56802;51.184;-115.558;2022-07-17T00:54:21;27.22;20.76
69598;SHT31;56802;51.184;-115.558;2022-07-17T00:56:52;27.17;20.62
69598;SHT31;56802;51.184;-115.558;2022-07-17T00:59:25;27.07;20.59
69598;SHT31;56802;51.184;-115.558;2022-07-17T01:01:57;26.97;20.94
69598;SHT31;56802;51.184;-115.558;2022-07-17T01:04:27;26.89;20.84
69598;SHT31;56802;51.184;-115.558;2022-07-17T01:06:57;26.79;20.74
69598;SHT31;56802;51.184;-115.558;2022-07-17T01:09:28;26.65;20.68
69598;SHT31;56802;51.184;-115.558;2022-07-17T01:11:59;26.55;20.80
69598;SHT31;56802;51.184;-115.558;2022-07-17T01:14:28;26.47;21.06
69598;SHT31;56802;51.184;-115.558;2022-07-17T01:16:58;26.41;21.15
69598;SHT31;56802;51.184;-115.558;2022-07-17T01:19:29;26.35;21.37
69598;SHT31;56802;51.184;-115.558;2022-07-17T01:21:59;26.29;21.54
69598;SHT31;56802;51.184;-115.558;2022-07-17T01:24:28;26.22;21.53
69598;SHT31;56802;51.184;-115.558;2022-07-17T01:26:58;26.16;21.77
69598;SHT31;56802;51.184;-115.558;2022-07-17T01:29:28;26.11;21.97
69598;SHT31;56802;51.184;-115.558;2022-07-17T01:31:57;26.09;21.98
69598;SHT31;56802;51.184;-115.558;2022-07-17T01:34:26;26.04;21.89
69598;SHT31;56802;51.184;-115.558;2022-07-17T01:36:55;25.96;21.98
69598;SHT31;56802;51.184;-115.558;2022-07-17T01:39:25;25.92;22.17
69598;SHT31;56802;51.184;-115.558;2022-07-17T01:42:14;25.87;22.26
69598;SHT31;56802;51.184;-115.558;2022-07-17T01:44:44;25.81;22.35
69598;SHT31;56802;51.184;-115.558;2022-07-17T01:47:17;25.77;22.42
69598;SHT31;56802;51.184;-115.558;2022-07-17T01:49:48;25.71;22.51
69598;SHT31;56802;51.184;-115.558;2022-07-17T01:52:21;25.65;22.69
69598;SHT31;56802;51.184;-115.558;2022-07-17T01:54:53;25.60;22.65
69598;SHT31;56802;51.184;-115.558;2022-07-17T01:57:22;25.54;22.77
69598;SHT31;56802;51.184;-115.558;2022-07-17T01:59:51;25.50;22.85
69598;SHT31;56802;51.184;-115.558;2022-07-17T02:02:21;25.45;22.86
69598;SHT31;56802;51.184;-115.558;2022-07-17T02:04:50;25.40;22.99
69598;SHT31;56802;51.184;-115.558;2022-07-17T02:07:20;25.37;23.31
69598;SHT31;56802;51.184;-115.558;2022-07-17T02:09:49;25.32;23.32
69598;SHT31;56802;51.184;-115.558;2022-07-17T02:12:19;25.23;23.22
69598;SHT31;56802;51.184;-115.558;2022-07-17T02:14:49;25.15;23.22
69598;SHT31;56802;51.184;-115.558;2022-07-17T02:17:18;25.12;23.24
69598;SHT31;56802;51.184;-115.558;2022-07-17T02:19:48;25.07;23.42
69598;SHT31;56802;51.184;-115.558;2022-07-17T02:22:17;25.03;23.72
69598;SHT31;56802;51.184;-115.558;2022-07-17T02:24:48;24.94;24.15
69598;SHT31;56802;51.184;-115.558;2022-07-17T02:27:17;24.86;24.41
69598;SHT31;56802;51.184;-115.558;2022-07-17T02:29:50;24.80;24.55
69598;SHT31;56802;51.184;-115.558;2022-07-17T02:32:19;24.73;24.76
69598;SHT31;56802;51.184;-115.558;2022-07-17T02:34:49;24.68;24.88
69598;SHT31;56802;51.184;-115.558;2022-07-17T02:37:21;24.64;25.11
69598;SHT31;56802;51.184;-115.558;2022-07-17T02:39:50;24.62;25.45
69598;SHT31;56802;51.184;-115.558;2022-07-17T02:42:20;24.56;25.59
69598;SHT31;56802;51.184;-115.558;2022-07-17T02:44:53;24.50;25.83
69598;SHT31;56802;51.184;-115.558;2022-07-17T02:47:31;24.42;25.96
69598;SHT31;56802;51.184;-115.558;2022-07-17T02:50:04;24.36;26.18
69598;SHT31;56802;51.184;-115.558;2022-07-17T02:52:35;24.31;26.39
69598;SHT31;56802;51.184;-115.558;2022-07-17T02:55:05;24.23;26.53
69598;SHT31;56802;51.184;-115.558;2022-07-17T02:57:36;24.15;26.61
69598;SHT31;56802;51.184;-115.558;2022-07-17T03:00:07;24.07;26.61
69598;SHT31;56802;51.184;-115.558;2022-07-17T03:02:39;24.00;26.67
69598;SHT31;56802;51.184;-115.558;2022-07-17T03:05:08;23.93;26.70
69598;SHT31;56802;51.184;-115.558;2022-07-17T03:07:39;23.84;26.94
69598;SHT31;56802;51.184;-115.558;2022-07-17T03:10:09;23.78;27.02
69598;SHT31;56802;51.184;-115.558;2022-07-17T03:12:39;23.72;27.47
69598;SHT31;56802;51.184;-115.558;2022-07-17T03:15:10;23.62;28.18
69598;SHT31;56802;51.184;-115.558;2022-07-17T03:17:40;23.53;28.57
69598;SHT31;56802;51.184;-115.558;2022-07-17T03:20:10;23.44;28.95
69598;SHT31;56802;51.184;-115.558;2022-07-17T03:22:39;23.33;29.44
69598;SHT31;56802;51.184;-115.558;2022-07-17T03:25:09;23.24;29.59
69598;SHT31;56802;51.184;-115.558;2022-07-17T03:27:38;23.13;29.86
69598;SHT31;56802;51.184;-115.558;2022-07-17T03:30:08;23.01;30.10
69598;SHT31;56802;51.184;-115.558;2022-07-17T03:32:37;22.92;30.19
69598;SHT31;56802;51.184;-115.558;2022-07-17T03:35:07;22.85;30.18
69598;SHT31;56802;51.184;-115.558;2022-07-17T03:37:36;22.82;30.06
69598;SHT31;56802;51.184;-115.558;2022-07-17T03:40:06;22.76;30.31
69598;SHT31;56802;51.184;-115.558;2022-07-17T03:42:36;22.68;30.55
69598;SHT31;56802;51.184;-115.558;2022-07-17T03:45:06;22.61;30.47
69598;SHT31;56802;51.184;-115.558;2022-07-17T03:47:35;22.57;30.58
69598;SHT31;56802;51.184;-115.558;2022-07-17T03:50:05;22.48;30.88
69598;SHT31;56802;51.184;-115.558;2022-07-17T03:52:35;22.40;30.92
69598;SHT31;56802;51.184;-115.558;2022-07-17T03:55:04;22.34;30.96
69598;SHT31;56802;51.184;-115.558;2022-07-17T03:57:34;22.27;31.17
69598;SHT31;56802;51.184;-115.558;2022-07-17T04:00:04;22.18;31.26
69598;SHT31;56802;51.184;-115.558;2022-07-17T04:02:35;22.11;31.39
69598;SHT31;56802;51.184;-115.558;2022-07-17T04:05:04;22.05;31.39
69598;SHT31;56802;51.184;-115.558;2022-07-17T04:07:40;21.98;31.30
69598;SHT31;56802;51.184;-115.558;2022-07-17T04:10:11;21.90;31.20
69598;SHT31;56802;51.184;-115.558;2022-07-17T04:12:42;21.86;31.38
69598;SHT31;56802;51.184;-115.558;2022-07-17T04:15:11;21.80;31.72
69598;SHT31;56802;51.184;-115.558;2022-07-17T04:18:01;21.70;31.98
69598;SHT31;56802;51.184;-115.558;2022-07-17T04:20:30;21.59;32.00
69598;SHT31;56802;51.184;-115.558;2022-07-17T04:22:59;21.48;31.87
69598;SHT31;56802;51.184;-115.558;2022-07-17T04:25:29;21.35;31.94
69598;SHT31;56802;51.184;-115.558;2022-07-17T04:27:59;21.27;32.04
69598;SHT31;56802;51.184;-115.558;2022-07-17T04:30:30;21.23;32.14
69598;SHT31;56802;51.184;-115.558;2022-07-17T04:32:59;21.17;32.28
69598;SHT31;56802;51.184;-115.558;2022-07-17T04:35:29;21.10;32.42
69598;SHT31;56802;51.184;-115.558;2022-07-17T04:37:59;21.02;32.53
69598;SHT31;56802;51.184;-115.558;2022-07-17T04:40:33;20.97;32.56
69598;SHT31;56802;51.184;-115.558;2022-07-17T04:43:04;20.91;32.67
69598;SHT31;56802;51.184;-115.558;2022-07-17T04:45:35;20.85;32.79
69598;SHT31;56802;51.184;-115.558;2022-07-17T04:48:04;20.77;32.94
69598;SHT31;56802;51.184;-115.558;2022-07-17T04:50:33;20.71;33.09
69598;SHT31;56802;51.184;-115.558;2022-07-17T04:53:03;20.64;33.21
69598;SHT31;56802;51.184;-115.558;2022-07-17T04:55:33;20.58;33.37
69598;SHT31;56802;51.184;-115.558;2022-07-17T04:58:02;20.49;33.53
69598;SHT31;56802;51.184;-115.558;2022-07-17T05:00:31;20.44;33.60
69598;SHT31;56802;51.184;-115.558;2022-07-17T05:03:01;20.39;33.68
69598;SHT31;56802;51.184;-115.558;2022-07-17T05:05:31;20.36;33.85
69598;SHT31;56802;51.184;-115.558;2022-07-17T05:08:09;20.32;34.54
69598;SHT31;56802;51.184;-115.558;2022-07-17T05:10:38;20.24;34.91
69598;SHT31;56802;51.184;-115.558;2022-07-17T05:13:08;20.11;34.89
69598;SHT31;56802;51.184;-115.558;2022-07-17T05:15:37;20.00;35.19
69598;SHT31;56802;51.184;-115.558;2022-07-17T05:18:07;19.85;35.40
69598;SHT31;56802;51.184;-115.558;2022-07-17T05:20:42;19.74;35.31
69598;SHT31;56802;51.184;-115.558;2022-07-17T05:23:12;19.65;35.44
69598;SHT31;56802;51.184;-115.558;2022-07-17T05:25:41;19.57;35.60
69598;SHT31;56802;51.184;-115.558;2022-07-17T05:28:11;19.51;35.69
69598;SHT31;56802;51.184;-115.558;2022-07-17T05:30:43;19.41;35.68
69598;SHT31;56802;51.184;-115.558;2022-07-17T05:33:12;19.36;35.85
69598;SHT31;56802;51.184;-115.558;2022-07-17T05:35:42;19.27;35.96
69598;SHT31;56802;51.184;-115.558;2022-07-17T05:38:11;19.17;36.02
69598;SHT31;56802;51.184;-115.558;2022-07-17T05:40:41;19.13;36.14
69598;SHT31;56802;51.184;-115.558;2022-07-17T05:43:11;19.11;36.15
69598;SHT31;56802;51.184;-115.558;2022-07-17T05:45:40;19.05;36.37
69598;SHT31;56802;51.184;-115.558;2022-07-17T05:48:09;18.95;36.76
69598;SHT31;56802;51.184;-115.558;2022-07-17T05:50:38;18.82;37.10
69598;SHT31;56802;51.184;-115.558;2022-07-17T05:53:08;18.62;37.20
69598;SHT31;56802;51.184;-115.558;2022-07-17T05:55:37;18.48;37.45
69598;SHT31;56802;51.184;-115.558;2022-07-17T05:58:06;18.37;37.11
69598;SHT31;56802;51.184;-115.558;2022-07-17T06:00:36;18.30;37.48
69598;SHT31;56802;51.184;-115.558;2022-07-17T06:03:06;18.23;37.45
69598;SHT31;56802;51.184;-115.558;2022-07-17T06:05:36;18.18;37.30
69598;SHT31;56802;51.184;-115.558;2022-07-17T06:08:06;18.10;37.53
69598;SHT31;56802;51.184;-115.558;2022-07-17T06:10:35;18.05;37.53
69598;SHT31;56802;51.184;-115.558;2022-07-17T06:13:06;18.03;37.61
69598;SHT31;56802;51.184;-115.558;2022-07-17T06:15:36;17.98;37.91
69598;SHT31;56802;51.184;-115.558;2022-07-17T06:18:05;17.92;37.66
69598;SHT31;56802;51.184;-115.558;2022-07-17T06:20:34;17.88;37.78
69598;SHT31;56802;51.184;-115.558;2022-07-17T06:23:04;17.84;37.83
69598;SHT31;56802;51.184;-115.558;2022-07-17T06:25:33;17.83;37.82
69598;SHT31;56802;51.184;-115.558;2022-07-17T06:28:02;17.81;37.85
69598;SHT31;56802;51.184;-115.558;2022-07-17T06:30:33;17.77;38.30
69598;SHT31;56802;51.184;-115.558;2022-07-17T06:33:02;17.67;38.31
69598;SHT31;56802;51.184;-115.558;2022-07-17T06:35:32;17.57;38.71
69598;SHT31;56802;51.184;-115.558;2022-07-17T06:38:06;17.43;38.74
69598;SHT31;56802;51.184;-115.558;2022-07-17T06:40:36;17.38;38.84
69598;SHT31;56802;51.184;-115.558;2022-07-17T06:43:06;17.35;39.11
69598;SHT31;56802;51.184;-115.558;2022-07-17T06:45:35;17.29;39.42
69598;SHT31;56802;51.184;-115.558;2022-07-17T06:48:05;17.26;39.36
69598;SHT31;56802;51.184;-115.558;2022-07-17T06:50:34;17.23;39.40
69598;SHT31;56802;51.184;-115.558;2022-07-17T06:53:04;17.18;39.40
69598;SHT31;56802;51.184;-115.558;2022-07-17T06:55:33;17.13;39.57
69598;SHT31;56802;51.184;-115.558;2022-07-17T06:58:03;17.08;39.53
69598;SHT31;56802;51.184;-115.558;2022-07-17T07:00:32;17.05;39.56
69598;SHT31;56802;51.184;-115.558;2022-07-17T07:03:02;17.01;39.75
69598;SHT31;56802;51.184;-115.558;2022-07-17T07:05:31;17.00;39.98
69598;SHT31;56802;51.184;-115.558;2022-07-17T07:08:01;16.94;40.34
69598;SHT31;56802;51.184;-115.558;2022-07-17T07:10:30;16.91;40.25
69598;SHT31;56802;51.184;-115.558;2022-07-17T07:12:59;16.90;40.20
69598;SHT31;56802;51.184;-115.558;2022-07-17T07:15:29;16.87;40.26
69598;SHT31;56802;51.184;-115.558;2022-07-17T07:17:58;16.82;40.44
69598;SHT31;56802;51.184;-115.558;2022-07-17T07:20:27;16.75;40.39
69598;SHT31;56802;51.184;-115.558;2022-07-17T07:22:57;16.74;40.63
69598;SHT31;56802;51.184;-115.558;2022-07-17T07:25:33;16.67;40.62
69598;SHT31;56802;51.184;-115.558;2022-07-17T07:28:03;16.62;40.94
69598;SHT31;56802;51.184;-115.558;2022-07-17T07:30:33;16.59;40.90
69598;SHT31;56802;51.184;-115.558;2022-07-17T07:33:02;16.52;40.96
69598;SHT31;56802;51.184;-115.558;2022-07-17T07:35:32;16.44;41.09
69598;SHT31;56802;51.184;-115.558;2022-07-17T07:38:01;16.42;41.22
69598;SHT31;56802;51.184;-115.558;2022-07-17T07:40:32;16.41;41.39
69598;SHT31;56802;51.184;-115.558;2022-07-17T07:43:03;16.44;41.40
69598;SHT31;56802;51.184;-115.558;2022-07-17T07:45:33;16.46;41.41
69598;SHT31;56802;51.184;-115.558;2022-07-17T07:48:03;16.45;41.69
69598;SHT31;56802;51.184;-115.558;2022-07-17T07:50:33;16.44;41.74
69598;SHT31;56802;51.184;-115.558;2022-07-17T07:53:02;16.41;42.38
69598;SHT31;56802;51.184;-115.558;2022-07-17T07:55:31;16.33;42.31
69598;SHT31;56802;51.184;-115.558;2022-07-17T07:58:01;16.28;42.39
69598;SHT31;56802;51.184;-115.558;2022-07-17T08:00:37;16.25;42.79
69598;SHT31;56802;51.184;-115.558;2022-07-17T08:03:11;16.22;42.76
69598;SHT31;56802;51.184;-115.558;2022-07-17T08:05:41;16.22;42.72
69598;SHT31;56802;51.184;-115.558;2022-07-17T08:08:10;16.15;43.04
69598;SHT31;56802;51.184;-115.558;2022-07-17T08:10:40;16.07;43.29
69598;SHT31;56802;51.184;-115.558;2022-07-17T08:13:09;16.02;43.56
69598;SHT31;56802;51.184;-115.558;2022-07-17T08:15:39;15.96;43.60
69598;SHT31;56802;51.184;-115.558;2022-07-17T08:18:08;15.92;43.66
69598;SHT31;56802;51.184;-115.558;2022-07-17T08:20:37;15.89;43.85
69598;SHT31;56802;51.184;-115.558;2022-07-17T08:23:07;15.85;44.15
69598;SHT31;56802;51.184;-115.558;2022-07-17T08:25:36;15.80;44.20
69598;SHT31;56802;51.184;-115.558;2022-07-17T08:28:06;15.79;44.38
69598;SHT31;56802;51.184;-115.558;2022-07-17T08:30:36;15.80;44.48
69598;SHT31;56802;51.184;-115.558;2022-07-17T08:33:06;15.79;44.53
69598;SHT31;56802;51.184;-115.558;2022-07-17T08:35:37;15.76;44.62
69598;SHT31;56802;51.184;-115.558;2022-07-17T08:38:07;15.70;45.04
69598;SHT31;56802;51.184;-115.558;2022-07-17T08:40:37;15.61;45.32
69598;SHT31;56802;51.184;-115.558;2022-07-17T08:43:08;15.57;45.47
69598;SHT31;56802;51.184;-115.558;2022-07-17T08:45:39;15.52;45.70
69598;SHT31;56802;51.184;-115.558;2022-07-17T08:48:13;15.50;45.74
69598;SHT31;56802;51.184;-115.558;2022-07-17T08:50:46;15.43;45.88
69598;SHT31;56802;51.184;-115.558;2022-07-17T08:53:16;15.38;46.23
69598;SHT31;56802;51.184;-115.558;2022-07-17T08:55:45;15.31;46.41
69598;SHT31;56802;51.184;-115.558;2022-07-17T08:58:15;15.26;46.84
69598;SHT31;56802;51.184;-115.558;2022-07-17T09:00:45;15.22;46.73
69598;SHT31;56802;51.184;-115.558;2022-07-17T09:03:15;15.18;46.76
69598;SHT31;56802;51.184;-115.558;2022-07-17T09:05:45;15.18;46.92
69598;SHT31;56802;51.184;-115.558;2022-07-17T09:08:18;15.13;47.31
69598;SHT31;56802;51.184;-115.558;2022-07-17T09:10:52;15.07;47.36
69598;SHT31;56802;51.184;-115.558;2022-07-17T09:16:05;14.97;47.64
69598;SHT31;56802;51.184;-115.558;2022-07-17T09:18:45;14.95;47.79
69598;SHT31;56802;51.184;-115.558;2022-07-17T09:21:26;14.88;48.02
69598;SHT31;56802;51.184;-115.558;2022-07-17T09:24:07;14.87;48.13
69598;SHT31;56802;51.184;-115.558;2022-07-17T09:26:42;14.86;48.30
69598;SHT31;56802;51.184;-115.558;2022-07-17T09:29:12;14.80;48.40
69598;SHT31;56802;51.184;-115.558;2022-07-17T09:31:42;14.78;48.51
69598;SHT31;56802;51.184;-115.558;2022-07-17T09:34:18;14.74;48.71
69598;SHT31;56802;51.184;-115.558;2022-07-17T09:36:57;14.71;48.72
69598;SHT31;56802;51.184;-115.558;2022-07-17T09:39:36;14.66;48.84
69598;SHT31;56802;51.184;-115.558;2022-07-17T09:42:07;14.61;48.77
69598;SHT31;56802;51.184;-115.558;2022-07-17T09:45:05;14.58;48.72
69598;SHT31;56802;51.184;-115.558;2022-07-17T09:47:38;14.53;48.93
69598;SHT31;56802;51.184;-115.558;2022-07-17T09:50:08;14.50;49.08
69598;SHT31;56802;51.184;-115.558;2022-07-17T09:52:37;14.47;49.19
69598;SHT31;56802;51.184;-115.558;2022-07-17T09:55:07;14.45;49.26
69598;SHT31;56802;51.184;-115.558;2022-07-17T09:57:59;14.38;49.62
69598;SHT31;56802;51.184;-115.558;2022-07-17T10:00:31;14.32;49.83
69598;SHT31;56802;51.184;-115.558;2022-07-17T10:03:04;14.27;49.98
69598;SHT31;56802;51.184;-115.558;2022-07-17T10:05:34;14.24;49.93
69598;SHT31;56802;51.184;-115.558;2022-07-17T10:08:11;14.20;50.08
69598;SHT31;56802;51.184;-115.558;2022-07-17T10:10:41;14.16;50.00
69598;SHT31;56802;51.184;-115.558;2022-07-17T10:13:10;14.13;50.09
69598;SHT31;56802;51.184;-115.558;2022-07-17T10:15:43;14.09;50.25
69598;SHT31;56802;51.184;-115.558;2022-07-17T10:18:14;14.02;50.31
69598;SHT31;56802;51.184;-115.558;2022-07-17T10:20:44;13.98;50.41
69598;SHT31;56802;51.184;-115.558;2022-07-17T10:23:14;13.96;50.39
69598;SHT31;56802;51.184;-115.558;2022-07-17T10:25:43;13.92;50.48
69598;SHT31;56802;51.184;-115.558;2022-07-17T10:28:12;13.88;50.59
69598;SHT31;56802;51.184;-115.558;2022-07-17T10:30:44;13.82;50.46
69598;SHT31;56802;51.184;-115.558;2022-07-17T10:33:15;13.73;50.44
69598;SHT31;56802;51.184;-115.558;2022-07-17T10:35:46;13.68;50.69
69598;SHT31;56802;51.184;-115.558;2022-07-17T10:38:17;13.63;50.95
69598;SHT31;56802;51.184;-115.558;2022-07-17T10:40:47;13.59;50.91
69598;SHT31;56802;51.184;-115.558;2022-07-17T10:43:43;13.55;51.03
69598;SHT31;56802;51.184;-115.558;2022-07-17T10:46:12;13.53;51.22
69598;SHT31;56802;51.184;-115.558;2022-07-17T10:48:42;13.53;51.28
69598;SHT31;56802;51.184;-115.558;2022-07-17T10:51:17;13.53;51.44
69598;SHT31;56802;51.184;-115.558;2022-07-17T10:53:47;13.47;51.57
69598;SHT31;56802;51.184;-115.558;2022-07-17T10:56:16;13.40;51.65
69598;SHT31;56802;51.184;-115.558;2022-07-17T10:58:46;13.36;51.84
69598;SHT31;56802;51.184;-115.558;2022-07-17T11:01:16;13.34;51.97
69598;SHT31;56802;51.184;-115.558;2022-07-17T11:03:52;13.29;52.34
69598;SHT31;56802;51.184;-115.558;2022-07-17T11:09:02;13.24;52.41
69598;SHT31;56802;51.184;-115.558;2022-07-17T11:11:39;13.20;52.50
69598;SHT31;56802;51.184;-115.558;2022-07-17T11:14:18;13.15;52.62
69598;SHT31;56802;51.184;-115.558;2022-07-17T11:16:54;13.06;52.60
69598;SHT31;56802;51.184;-115.558;2022-07-17T11:22:10;12.92;53.22
69598;SHT31;56802;51.184;-115.558;2022-07-17T11:24:46;12.84;53.48
69598;SHT31;56802;51.184;-115.558;2022-07-17T11:27:21;12.78;53.61
69598;SHT31;56802;51.184;-115.558;2022-07-17T11:29:58;12.71;53.64
69598;SHT31;56802;51.184;-115.558;2022-07-17T11:32:36;12.65;53.68
69598;SHT31;56802;51.184;-115.558;2022-07-17T11:35:20;12.64;53.71
69598;SHT31;56802;51.184;-115.558;2022-07-17T11:38:07;12.56;53.91
69598;SHT31;56802;51.184;-115.558;2022-07-17T11:40:45;12.56;53.97
69598;SHT31;56802;51.184;-115.558;2022-07-17T11:43:26;12.54;54.07
69598;SHT31;56802;51.184;-115.558;2022-07-17T11:45:56;12.52;54.00
69598;SHT31;56802;51.184;-115.558;2022-07-17T11:48:25;12.50;54.03
69598;SHT31;56802;51.184;-115.558;2022-07-17T11:50:56;12.48;54.25
69598;SHT31;56802;51.184;-115.558;2022-07-17T11:53:32;12.48;54.37
69598;SHT31;56802;51.184;-115.558;2022-07-17T11:56:06;12.45;54.36
69598;SHT31;56802;51.184;-115.558;2022-07-17T11:58:41;12.41;54.44
69598;SHT31;56802;51.184;-115.558;2022-07-17T12:01:13;12.37;54.71
69598;SHT31;56802;51.184;-115.558;2022-07-17T12:03:44;12.32;54.61
69598;SHT31;56802;51.184;-115.558;2022-07-17T12:06:13;12.33;54.68
69598;SHT31;56802;51.184;-115.558;2022-07-17T12:08:55;12.35;54.77
69598;SHT31;56802;51.184;-115.558;2022-07-17T12:11:25;12.34;54.90
69598;SHT31;56802;51.184;-115.558;2022-07-17T12:13:54;12.33;54.78
69598;SHT31;56802;51.184;-115.558;2022-07-17T12:16:36;12.33;54.94
69598;SHT31;56802;51.184;-115.558;2022-07-17T12:19:08;12.32;54.90
69598;SHT31;56802;51.184;-115.558;2022-07-17T12:21:54;12.30;55.08
69598;SHT31;56802;51.184;-115.558;2022-07-17T12:24:30;12.24;55.15
69598;SHT31;56802;51.184;-115.558;2022-07-17T12:27:07;12.22;55.20
69598;SHT31;56802;51.184;-115.558;2022-07-17T12:29:45;12.18;55.14
69598;SHT31;56802;51.184;-115.558;2022-07-17T12:32:18;12.15;55.22
69598;SHT31;56802;51.184;-115.558;2022-07-17T12:34:51;12.19;55.25
69598;SHT31;56802;51.184;-115.558;2022-07-17T12:37:26;12.23;55.23
69598;SHT31;56802;51.184;-115.558;2022-07-17T12:39:56;12.24;55.35
69598;SHT31;56802;51.184;-115.558;2022-07-17T12:42:25;12.24;55.54
69598;SHT31;56802;51.184;-115.558;2022-07-17T12:44:55;12.24;55.57
69598;SHT31;56802;51.184;-115.558;2022-07-17T12:47:24;12.26;55.50
69598;SHT31;56802;51.184;-115.558;2022-07-17T12:49:54;12.28;55.49
69598;SHT31;56802;51.184;-115.558;2022-07-17T12:52:23;12.26;56.11
69598;SHT31;56802;51.184;-115.558;2022-07-17T12:54:52;12.24;55.93
69598;SHT31;56802;51.184;-115.558;2022-07-17T12:57:22;12.27;55.71
69598;SHT31;56802;51.184;-115.558;2022-07-17T12:59:51;12.27;55.57
69598;SHT31;56802;51.184;-115.558;2022-07-17T13:02:21;12.27;55.73
69598;SHT31;56802;51.184;-115.558;2022-07-17T13:04:52;12.28;55.89
69598;SHT31;56802;51.184;-115.558;2022-07-17T13:07:27;12.29;55.57
69598;SHT31;56802;51.184;-115.558;2022-07-17T13:09:57;12.30;55.47
69598;SHT31;56802;51.184;-115.558;2022-07-17T13:12:27;12.30;55.71
69598;SHT31;56802;51.184;-115.558;2022-07-17T13:14:56;12.28;56.03
69598;SHT31;56802;51.184;-115.558;2022-07-17T13:17:25;12.28;55.83
69598;SHT31;56802;51.184;-115.558;2022-07-17T13:19:55;12.32;55.92
69598;SHT31;56802;51.184;-115.558;2022-07-17T13:22:25;12.32;55.87
69598;SHT31;56802;51.184;-115.558;2022-07-17T13:24:54;12.35;55.54
69598;SHT31;56802;51.184;-115.558;2022-07-17T13:27:23;12.39;55.70
69598;SHT31;56802;51.184;-115.558;2022-07-17T13:29:55;12.46;55.57
69598;SHT31;56802;51.184;-115.558;2022-07-17T13:32:25;12.52;55.63
69598;SHT31;56802;51.184;-115.558;2022-07-17T13:34:54;12.58;55.56
69598;SHT31;56802;51.184;-115.558;2022-07-17T13:37:24;12.65;55.79
69598;SHT31;56802;51.184;-115.558;2022-07-17T13:39:54;12.71;55.72
69598;SHT31;56802;51.184;-115.558;2022-07-17T13:42:23;12.76;56.03
69598;SHT31;56802;51.184;-115.558;2022-07-17T13:44:53;12.82;56.49
69598;SHT31;56802;51.184;-115.558;2022-07-17T13:47:22;12.89;57.30
69598;SHT31;56802;51.184;-115.558;2022-07-17T13:49:51;12.98;57.35
69598;SHT31;56802;51.184;-115.558;2022-07-17T13:52:21;13.10;57.80
69598;SHT31;56802;51.184;-115.558;2022-07-17T13:54:51;13.20;57.03
69598;SHT31;56802;51.184;-115.558;2022-07-17T13:57:42;13.33;57.62
69598;SHT31;56802;51.184;-115.558;2022-07-17T14:00:11;13.48;59.49
69598;SHT31;56802;51.184;-115.558;2022-07-17T14:02:41;13.74;62.65
69598;SHT31;56802;51.184;-115.558;2022-07-17T14:05:10;13.99;62.62
69598;SHT31;56802;51.184;-115.558;2022-07-17T14:07:40;14.20;62.89
69598;SHT31;56802;51.184;-115.558;2022-07-17T14:10:10;14.48;63.59
69598;SHT31;56802;51.184;-115.558;2022-07-17T14:12:40;14.79;63.50
69598;SHT31;56802;51.184;-115.558;2022-07-17T14:15:10;15.08;63.40
69598;SHT31;56802;51.184;-115.558;2022-07-17T14:17:39;15.38;63.12
69598;SHT31;56802;51.184;-115.558;2022-07-17T14:20:09;15.59;61.88
69598;SHT31;56802;51.184;-115.558;2022-07-17T14:22:42;15.74;61.27
69598;SHT31;56802;51.184;-115.558;2022-07-17T14:25:12;15.87;60.96
69598;SHT31;56802;51.184;-115.558;2022-07-17T14:27:41;15.98;60.75
69598;SHT31;56802;51.184;-115.558;2022-07-17T14:30:11;16.05;60.36
69598;SHT31;56802;51.184;-115.558;2022-07-17T14:32:41;16.14;60.07
69598;SHT31;56802;51.184;-115.558;2022-07-17T14:35:10;16.22;59.93
69598;SHT31;56802;51.184;-115.558;2022-07-17T14:37:39;16.33;59.83
69598;SHT31;56802;51.184;-115.558;2022-07-17T14:40:12;16.42;59.60
69598;SHT31;56802;51.184;-115.558;2022-07-17T14:42:42;16.53;59.36
69598;SHT31;56802;51.184;-115.558;2022-07-17T14:45:11;16.63;59.16
69598;SHT31;56802;51.184;-115.558;2022-07-17T14:47:41;16.74;58.93
69598;SHT31;56802;51.184;-115.558;2022-07-17T14:50:10;16.86;59.02
69598;SHT31;56802;51.184;-115.558;2022-07-17T14:52:39;16.98;58.24
69598;SHT31;56802;51.184;-115.558;2022-07-17T14:55:09;17.09;57.85
69598;SHT31;56802;51.184;-115.558;2022-07-17T14:57:38;17.23;57.97
69598;SHT31;56802;51.184;-115.558;2022-07-17T15:00:08;17.35;57.47
69598;SHT31;56802;51.184;-115.558;2022-07-17T15:02:38;17.50;57.07
69598;SHT31;56802;51.184;-115.558;2022-07-17T15:05:09;17.68;56.82
69598;SHT31;56802;51.184;-115.558;2022-07-17T15:07:38;17.90;56.03
69598;SHT31;56802;51.184;-115.558;2022-07-17T15:10:10;18.10;54.92
69598;SHT31;56802;51.184;-115.558;2022-07-17T15:12:39;18.23;54.09
69598;SHT31;56802;51.184;-115.558;2022-07-17T15:15:09;18.35;53.71
69598;SHT31;56802;51.184;-115.558;2022-07-17T15:17:39;18.45;53.16
69598;SHT31;56802;51.184;-115.558;2022-07-17T15:20:08;18.55;52.35